Time;durP1;ratioP1;P1;durP2;ratioP2;P2;SDS_P1;SDS_P2;PMS_P1;PMS_P2;Temp;Humidity;BMP_temperature;BMP_pressure;BME280_temperature;BME280_humidity;BME280_pressure;Samples;Min_cycle;Max_cycle;Signal;HPM_P1;HPM_P2
2021/09/12 00:00:58;;;;;;;396.45;252.82;;;;;;;;;;4385364;32;20579;-54
2021/09/12 00:03:27;;;;;;;397.95;253.50;;;;;;;;;;4387435;32;20039;-54
2021/09/12 00:05:55;;;;;;;393.65;249.75;;;;;;;;;;4386885;32;20052;-54
2021/09/12 00:08:23;;;;;;;390.75;251.10;;;;;;;;;;4386388;32;20077;-54
2021/09/12 00:10:52;;;;;;;395.15;255.40;;;;;;;;;;4386648;32;20073;-54
2021/09/12 00:13:20;;;;;;;394.02;252.62;;;;;;;;;;4391185;32;20101;-53
2021/09/12 00:15:49;;;;;;;393.55;248.20;;;;;;;;;;4393172;32;20108;-55
2021/09/12 00:18:19;;;;;;;420.05;257.98;;;;;;;;;;4393047;32;20797;-53
2021/09/12 00:20:48;;;;;;;401.05;254.50;;;;;;;;;;4388394;32;20130;-55
2021/09/12 00:23:16;;;;;;;396.58;254.50;;;;;;;;;;4384842;32;20616;-54
2021/09/12 00:25:44;;;;;;;389.60;251.15;;;;;;;;;;4384753;32;20116;-53
2021/09/12 00:28:13;;;;;;;385.20;248.18;;;;;;;;;;4397049;32;20070;-55
2021/09/12 00:30:41;;;;;;;389.48;259.20;;;;;;;;;;4388919;32;20055;-55
2021/09/12 00:33:09;;;;;;;390.92;248.50;;;;;;;;;;4386175;32;20039;-54
2021/09/12 00:35:38;;;;;;;399.67;255.48;;;;;;;;;;4386654;32;20458;-54
2021/09/12 00:38:08;;;;;;;400.45;252.40;;;;;;;;;;4393384;32;20086;-53
2021/09/12 00:40:37;;;;;;;402.35;251.02;;;;;;;;;;4393128;32;20096;-54
2021/09/12 00:43:05;;;;;;;404.98;252.77;;;;;;;;;;4393590;32;20455;-54
2021/09/12 00:45:33;;;;;;;400.77;250.32;;;;;;;;;;4387258;32;20130;-54
2021/09/12 00:48:03;;;;;;;397.83;247.90;;;;;;;;;;4379901;32;20157;-54
2021/09/12 00:50:31;;;;;;;404.73;250.70;;;;;;;;;;4389119;32;20106;-54
2021/09/12 00:53:02;;;;;;;402.45;249.95;;;;;;;;;;4388530;32;20058;-54
2021/09/12 00:55:31;;;;;;;391.77;238.73;;;;;;;;;;4389801;32;20074;-55
2021/09/12 00:58:00;;;;;;;390.10;239.32;;;;;;;;;;4392523;32;20076;-54
2021/09/12 01:00:28;;;;;;;383.08;238.60;;;;;;;;;;4391564;32;20491;-55
2021/09/12 01:03:07;;;;;;;386.23;233.90;;;;;;;;;;4395552;32;20039;-54
2021/09/12 01:05:36;;;;;;;387.90;239.93;;;;;;;;;;4387998;32;20477;-55
2021/09/12 01:08:06;;;;;;;385.80;239.73;;;;;;;;;;4385056;32;20087;-55
2021/09/12 01:10:34;;;;;;;392.05;241.60;;;;;;;;;;4388536;32;20503;-54
2021/09/12 01:13:03;;;;;;;389.55;240.23;;;;;;;;;;4393458;32;20051;-53
2021/09/12 01:15:32;;;;;;;383.10;238.52;;;;;;;;;;4392853;32;20054;-55
2021/09/12 01:18:00;;;;;;;365.58;225.15;;;;;;;;;;4393180;32;20090;-54
2021/09/12 01:20:28;;;;;;;353.60;219.90;;;;;;;;;;4395036;32;20108;-55
2021/09/12 01:22:57;;;;;;;344.75;218.23;;;;;;;;;;4388804;32;20089;-54
2021/09/12 01:25:25;;;;;;;326.70;204.27;;;;;;;;;;4389599;32;20112;-55
2021/09/12 01:27:53;;;;;;;317.83;202.80;;;;;;;;;;4388560;32;20043;-55
2021/09/12 01:30:22;;;;;;;320.80;207.40;;;;;;;;;;4386528;32;20356;-55
2021/09/12 01:32:50;;;;;;;309.67;200.07;;;;;;;;;;4397764;32;20038;-54
2021/09/12 01:35:19;;;;;;;305.70;198.60;;;;;;;;;;4389008;32;20069;-55
2021/09/12 01:37:47;;;;;;;301.88;203.37;;;;;;;;;;4394583;32;21625;-54
2021/09/12 01:40:15;;;;;;;280.75;192.30;;;;;;;;;;4388640;32;20143;-54
2021/09/12 01:42:43;;;;;;;293.77;195.40;;;;;;;;;;4388696;32;20074;-54
2021/09/12 01:45:12;;;;;;;285.65;197.48;;;;;;;;;;4395654;32;20085;-55
2021/09/12 01:47:45;;;;;;;278.70;194.10;;;;;;;;;;4393195;32;20119;-54
2021/09/12 01:50:15;;;;;;;264.48;182.00;;;;;;;;;;4385081;32;20054;-55
2021/09/12 01:52:44;;;;;;;269.62;187.88;;;;;;;;;;4384547;32;20090;-54
2021/09/12 01:55:12;;;;;;;268.00;192.52;;;;;;;;;;4384008;32;20085;-54
2021/09/12 01:57:40;;;;;;;267.70;193.62;;;;;;;;;;4384399;32;20447;-54
2021/09/12 02:00:09;;;;;;;265.65;194.68;;;;;;;;;;4387101;32;20542;-54
2021/09/12 02:02:38;;;;;;;274.50;191.02;;;;;;;;;;4394564;32;20107;-54
2021/09/12 02:05:06;;;;;;;256.40;180.10;;;;;;;;;;4393450;32;20073;-54
2021/09/12 02:07:35;;;;;;;254.98;177.95;;;;;;;;;;4397284;32;20094;-55
2021/09/12 02:10:03;;;;;;;256.63;178.07;;;;;;;;;;4394645;32;20050;-53
2021/09/12 02:12:31;;;;;;;262.95;178.05;;;;;;;;;;4389266;32;20081;-54
2021/09/12 02:14:59;;;;;;;255.37;175.12;;;;;;;;;;4386201;32;20118;-54
2021/09/12 02:17:28;;;;;;;249.40;173.02;;;;;;;;;;4395520;32;20062;-54
2021/09/12 02:19:56;;;;;;;245.40;174.45;;;;;;;;;;4392634;32;20117;-55
2021/09/12 02:22:25;;;;;;;238.73;170.45;;;;;;;;;;4387851;32;20090;-54
2021/09/12 02:24:53;;;;;;;232.90;168.90;;;;;;;;;;4388293;32;20070;-54
2021/09/12 02:27:21;;;;;;;235.93;169.40;;;;;;;;;;4389565;32;20052;-54
2021/09/12 02:29:50;;;;;;;244.75;173.23;;;;;;;;;;4380640;32;20450;-54
2021/09/12 02:32:18;;;;;;;241.27;172.77;;;;;;;;;;4388677;32;20050;-54
2021/09/12 02:34:46;;;;;;;235.27;170.98;;;;;;;;;;4391834;32;20079;-54
2021/09/12 02:37:14;;;;;;;250.85;175.57;;;;;;;;;;4392504;32;20146;-55
2021/09/12 02:39:43;;;;;;;246.57;170.40;;;;;;;;;;4392230;32;20047;-55
2021/09/12 02:42:11;;;;;;;242.73;168.07;;;;;;;;;;4387753;32;20447;-55
2021/09/12 02:44:39;;;;;;;249.00;178.18;;;;;;;;;;4395702;32;20115;-55
2021/09/12 02:47:08;;;;;;;240.18;168.50;;;;;;;;;;4387563;32;20073;-55
2021/09/12 02:49:36;;;;;;;242.75;168.93;;;;;;;;;;4387563;32;20684;-54
2021/09/12 02:52:05;;;;;;;245.37;178.90;;;;;;;;;;4388777;32;20153;-55
2021/09/12 02:54:33;;;;;;;240.35;172.65;;;;;;;;;;4398242;32;20121;-54
2021/09/12 02:57:01;;;;;;;231.73;160.32;;;;;;;;;;4390947;32;20069;-55
2021/09/12 02:59:30;;;;;;;225.02;159.98;;;;;;;;;;4391595;32;20042;-54
2021/09/12 03:01:58;;;;;;;234.87;171.70;;;;;;;;;;4390592;32;20137;-55
2021/09/12 03:04:27;;;;;;;238.77;174.23;;;;;;;;;;4388875;32;20047;-53
2021/09/12 03:06:55;;;;;;;254.05;179.73;;;;;;;;;;4385075;32;20094;-54
2021/09/12 03:09:24;;;;;;;258.30;177.90;;;;;;;;;;4385225;32;20031;-54
2021/09/12 03:11:52;;;;;;;260.27;181.00;;;;;;;;;;4386523;32;20082;-54
2021/09/12 03:14:20;;;;;;;255.27;175.77;;;;;;;;;;4385655;32;20067;-54
2021/09/12 03:16:49;;;;;;;257.65;178.68;;;;;;;;;;4388989;32;20097;-55
2021/09/12 03:19:17;;;;;;;254.10;180.45;;;;;;;;;;4390249;32;20096;-55
2021/09/12 03:21:45;;;;;;;255.57;182.27;;;;;;;;;;4387546;32;20269;-55
2021/09/12 03:24:14;;;;;;;263.35;192.23;;;;;;;;;;4387272;32;20043;-55
2021/09/12 03:26:42;;;;;;;259.55;183.75;;;;;;;;;;4390799;32;20062;-55
2021/09/12 03:29:10;;;;;;;260.80;185.00;;;;;;;;;;4393391;32;20100;-55
2021/09/12 03:31:39;;;;;;;255.55;180.52;;;;;;;;;;4385649;32;20113;-55
2021/09/12 03:34:07;;;;;;;260.33;179.73;;;;;;;;;;4388735;32;20039;-54
2021/09/12 03:36:35;;;;;;;257.17;183.82;;;;;;;;;;4386847;32;20104;-54
2021/09/12 03:39:04;;;;;;;266.20;188.32;;;;;;;;;;4391158;32;20047;-55
2021/09/12 03:41:32;;;;;;;263.80;186.90;;;;;;;;;;4393282;32;20058;-55
2021/09/12 03:44:00;;;;;;;263.23;190.20;;;;;;;;;;4394302;32;20043;-54
2021/09/12 03:46:29;;;;;;;267.92;193.45;;;;;;;;;;4386041;32;20042;-54
2021/09/12 03:48:57;;;;;;;276.95;193.62;;;;;;;;;;4388312;32;20058;-54
2021/09/12 03:51:25;;;;;;;276.25;192.68;;;;;;;;;;4385948;32;20126;-55
2021/09/12 03:53:54;;;;;;;279.33;191.23;;;;;;;;;;4385083;32;20065;-54
2021/09/12 03:56:22;;;;;;;278.62;189.23;;;;;;;;;;4389156;32;20082;-54
2021/09/12 03:58:50;;;;;;;273.45;188.15;;;;;;;;;;4385764;32;20047;-54
2021/09/12 04:01:19;;;;;;;265.70;181.45;;;;;;;;;;4386952;32;20073;-54
2021/09/12 04:03:47;;;;;;;264.98;179.80;;;;;;;;;;4389586;32;20077;-55
2021/09/12 04:06:16;;;;;;;257.55;176.25;;;;;;;;;;4388603;32;20086;-54
2021/09/12 04:08:44;;;;;;;262.25;182.82;;;;;;;;;;4392250;32;20050;-54
2021/09/12 04:11:12;;;;;;;253.05;162.68;;;;;;;;;;4391231;32;20043;-55
2021/09/12 04:13:40;;;;;;;260.77;178.93;;;;;;;;;;4400277;32;20050;-55
2021/09/12 04:16:09;;;;;;;260.27;184.48;;;;;;;;;;4393758;32;20065;-54
2021/09/12 04:18:37;;;;;;;250.98;182.43;;;;;;;;;;4389447;32;20047;-55
2021/09/12 04:21:06;;;;;;;252.82;184.43;;;;;;;;;;4390969;32;20522;-55
2021/09/12 04:23:34;;;;;;;262.30;190.30;;;;;;;;;;4389605;32;20352;-55
2021/09/12 04:26:03;;;;;;;265.23;191.62;;;;;;;;;;4390807;32;20043;-54
2021/09/12 04:28:32;;;;;;;281.17;206.35;;;;;;;;;;4390211;32;20055;-54
2021/09/12 04:31:00;;;;;;;269.17;206.85;;;;;;;;;;4388188;32;20498;-55
2021/09/12 04:33:29;;;;;;;258.87;186.30;;;;;;;;;;4388410;32;20043;-55
2021/09/12 04:35:57;;;;;;;279.55;207.85;;;;;;;;;;4390844;32;20148;-55
2021/09/12 04:38:25;;;;;;;281.87;216.80;;;;;;;;;;4390177;32;20058;-55
2021/09/12 04:40:53;;;;;;;281.87;206.15;;;;;;;;;;4390938;32;20104;-55
2021/09/12 04:43:21;;;;;;;275.13;191.62;;;;;;;;;;4389092;32;20552;-55
2021/09/12 04:45:50;;;;;;;291.92;205.43;;;;;;;;;;4393172;32;20043;-54
2021/09/12 04:48:18;;;;;;;296.27;210.13;;;;;;;;;;4389022;32;20047;-54
2021/09/12 04:50:46;;;;;;;293.85;205.90;;;;;;;;;;4398813;32;20797;-54
2021/09/12 04:53:15;;;;;;;303.35;211.23;;;;;;;;;;4389915;32;20073;-55
2021/09/12 04:55:43;;;;;;;291.83;206.98;;;;;;;;;;4389385;32;20113;-54
2021/09/12 04:58:11;;;;;;;289.92;212.50;;;;;;;;;;4392911;32;20051;-55
2021/09/12 05:00:40;;;;;;;291.17;209.80;;;;;;;;;;4390818;32;20047;-55
2021/09/12 05:03:08;;;;;;;283.90;205.15;;;;;;;;;;4389469;32;20385;-55
2021/09/12 05:05:37;;;;;;;272.02;194.60;;;;;;;;;;4396897;32;20142;-55
2021/09/12 05:08:05;;;;;;;292.40;203.55;;;;;;;;;;4388316;32;20426;-55
2021/09/12 05:10:34;;;;;;;296.80;204.57;;;;;;;;;;4383086;32;20043;-55
2021/09/12 05:13:02;;;;;;;300.83;209.73;;;;;;;;;;4388532;32;20046;-55
2021/09/12 05:15:30;;;;;;;297.42;192.02;;;;;;;;;;4399374;32;20042;-55
2021/09/12 05:17:59;;;;;;;298.15;204.15;;;;;;;;;;4387488;32;20375;-55
2021/09/12 05:20:27;;;;;;;294.52;216.32;;;;;;;;;;4388094;32;20478;-55
2021/09/12 05:22:55;;;;;;;294.85;209.68;;;;;;;;;;4387274;32;20098;-55
2021/09/12 05:25:24;;;;;;;299.48;209.77;;;;;;;;;;4393481;32;20096;-55
2021/09/12 05:27:52;;;;;;;297.15;211.77;;;;;;;;;;4381838;32;20081;-55
2021/09/12 05:30:20;;;;;;;295.80;209.18;;;;;;;;;;4391482;32;20062;-55
2021/09/12 05:32:49;;;;;;;287.95;206.93;;;;;;;;;;4389780;32;20099;-55
2021/09/12 05:35:18;;;;;;;283.15;201.98;;;;;;;;;;4398008;32;20392;-55
2021/09/12 05:37:47;;;;;;;281.75;202.00;;;;;;;;;;4385999;32;20056;-54
2021/09/12 05:40:15;;;;;;;292.23;204.02;;;;;;;;;;4389335;32;20043;-55
2021/09/12 05:42:44;;;;;;;298.58;210.10;;;;;;;;;;4394434;32;20058;-53
2021/09/12 05:45:12;;;;;;;305.70;211.90;;;;;;;;;;4389383;32;20047;-54
2021/09/12 05:47:41;;;;;;;296.55;196.20;;;;;;;;;;4391636;32;20093;-55
2021/09/12 05:50:10;;;;;;;296.58;212.18;;;;;;;;;;4391830;32;20103;-55
2021/09/12 05:52:38;;;;;;;291.20;205.98;;;;;;;;;;4384811;32;20485;-54
2021/09/12 05:55:07;;;;;;;306.45;222.65;;;;;;;;;;4384921;32;20666;-55
2021/09/12 05:57:36;;;;;;;302.40;218.40;;;;;;;;;;4385190;32;20132;-55
2021/09/12 06:00:09;;;;;;;302.35;216.23;;;;;;;;;;4390301;32;20117;-55
2021/09/12 06:02:38;;;;;;;309.30;223.40;;;;;;;;;;4382113;32;20128;-55
2021/09/12 06:05:07;;;;;;;317.85;240.62;;;;;;;;;;4391917;32;20097;-52
2021/09/12 06:07:35;;;;;;;310.20;233.50;;;;;;;;;;4387577;32;20091;-55
2021/09/12 06:10:05;;;;;;;379.10;260.05;;;;;;;;;;4386266;32;20039;-55
2021/09/12 06:12:33;;;;;;;376.40;247.18;;;;;;;;;;4384121;32;20134;-55
2021/09/12 06:15:01;;;;;;;306.50;234.18;;;;;;;;;;4387698;32;20074;-54
2021/09/12 06:17:30;;;;;;;306.35;239.27;;;;;;;;;;4386962;32;20436;-55
2021/09/12 06:19:58;;;;;;;302.95;226.23;;;;;;;;;;4385147;32;20104;-55
2021/09/12 06:22:26;;;;;;;288.60;214.10;;;;;;;;;;4392558;32;20209;-55
2021/09/12 06:24:55;;;;;;;297.85;227.62;;;;;;;;;;4388085;32;20077;-55
2021/09/12 06:27:23;;;;;;;307.08;227.40;;;;;;;;;;4387646;32;20034;-55
2021/09/12 06:29:51;;;;;;;302.45;218.60;;;;;;;;;;4387444;32;20124;-54
2021/09/12 06:32:19;;;;;;;299.55;219.20;;;;;;;;;;4385667;32;20055;-55
2021/09/12 06:34:48;;;;;;;294.75;219.90;;;;;;;;;;4384454;32;20114;-55
2021/09/12 06:37:16;;;;;;;300.98;222.77;;;;;;;;;;4386097;32;20114;-54
2021/09/12 06:39:44;;;;;;;297.20;219.05;;;;;;;;;;4383214;32;20451;-55
2021/09/12 06:42:12;;;;;;;314.10;225.77;;;;;;;;;;4386449;32;20066;-54
2021/09/12 06:44:44;;;;;;;306.80;219.62;;;;;;;;;;4386060;32;20050;-54
2021/09/12 06:47:12;;;;;;;306.05;226.25;;;;;;;;;;4384624;32;20055;-55
2021/09/12 06:49:40;;;;;;;333.83;247.02;;;;;;;;;;4385851;32;20537;-55
2021/09/12 06:52:09;;;;;;;322.88;245.68;;;;;;;;;;4387705;32;20050;-54
2021/09/12 06:54:37;;;;;;;324.67;232.50;;;;;;;;;;4387516;32;20438;-54
2021/09/12 06:57:05;;;;;;;344.15;222.05;;;;;;;;;;4387201;32;20108;-54
2021/09/12 06:59:34;;;;;;;345.95;221.87;;;;;;;;;;4386226;32;20073;-54
2021/09/12 07:02:02;;;;;;;326.62;212.55;;;;;;;;;;4380552;32;20055;-55
2021/09/12 07:04:31;;;;;;;302.75;205.15;;;;;;;;;;4385821;32;20096;-55
2021/09/12 07:07:00;;;;;;;405.83;263.92;;;;;;;;;;4386670;32;20038;-55
2021/09/12 07:09:28;;;;;;;410.23;266.17;;;;;;;;;;4385449;32;20724;-55
2021/09/12 07:11:56;;;;;;;426.17;275.02;;;;;;;;;;4396240;32;20094;-55
2021/09/12 07:14:42;;;;;;;429.17;283.50;;;;;;;;;;4395754;32;20076;-55
2021/09/12 07:17:11;;;;;;;428.35;278.08;;;;;;;;;;4393467;32;20451;-55
2021/09/12 07:19:40;;;;;;;430.87;281.45;;;;;;;;;;4387747;32;20099;-55
2021/09/12 07:22:09;;;;;;;427.65;285.58;;;;;;;;;;4392115;32;20077;-55
2021/09/12 07:24:39;;;;;;;458.67;290.65;;;;;;;;;;4386608;32;20046;-55
2021/09/12 07:27:07;;;;;;;446.12;293.52;;;;;;;;;;4396928;32;20104;-55
2021/09/12 07:29:36;;;;;;;441.42;296.33;;;;;;;;;;4383879;32;20067;-55
2021/09/12 07:32:04;;;;;;;442.80;294.83;;;;;;;;;;4394601;32;20689;-55
2021/09/12 07:34:32;;;;;;;381.77;242.65;;;;;;;;;;4385773;32;20054;-55
2021/09/12 07:37:01;;;;;;;388.52;243.02;;;;;;;;;;4399206;32;20078;-55
2021/09/12 07:39:29;;;;;;;390.17;246.13;;;;;;;;;;4399133;32;20100;-55
2021/09/12 07:42:00;;;;;;;389.08;246.27;;;;;;;;;;4389975;32;20174;-54
2021/09/12 07:44:29;;;;;;;398.30;247.70;;;;;;;;;;4386344;32;20100;-55
2021/09/12 07:46:57;;;;;;;466.48;295.20;;;;;;;;;;4394054;32;20462;-55
2021/09/12 07:49:25;;;;;;;455.50;297.55;;;;;;;;;;4391524;32;20118;-55
2021/09/12 07:51:54;;;;;;;459.92;300.40;;;;;;;;;;4385363;32;20654;-55
2021/09/12 07:54:22;;;;;;;481.80;307.20;;;;;;;;;;4390276;32;20088;-55
2021/09/12 07:56:50;;;;;;;521.83;314.25;;;;;;;;;;4394772;32;20055;-55
2021/09/12 07:59:19;;;;;;;518.10;320.05;;;;;;;;;;4392638;32;20090;-55
2021/09/12 08:01:47;;;;;;;526.60;330.25;;;;;;;;;;4390394;32;20816;-55
2021/09/12 08:04:16;;;;;;;520.33;327.92;;;;;;;;;;4389924;32;20115;-55
2021/09/12 08:06:45;;;;;;;539.03;331.13;;;;;;;;;;4391412;32;20501;-55
2021/09/12 08:09:13;;;;;;;544.08;336.02;;;;;;;;;;4387255;32;20084;-55
2021/09/12 08:11:41;;;;;;;487.88;317.60;;;;;;;;;;4392158;32;20094;-55
2021/09/12 08:14:09;;;;;;;490.58;306.05;;;;;;;;;;4392300;32;20547;-55
2021/09/12 08:16:38;;;;;;;505.70;333.90;;;;;;;;;;4390453;32;20372;-55
2021/09/12 08:19:06;;;;;;;470.00;301.42;;;;;;;;;;4389674;32;20488;-55
2021/09/12 08:21:35;;;;;;;471.80;306.83;;;;;;;;;;4394081;32;20092;-55
2021/09/12 08:24:05;;;;;;;512.65;342.60;;;;;;;;;;4394776;32;20047;-54
2021/09/12 08:26:34;;;;;;;559.22;343.77;;;;;;;;;;4392679;32;20494;-55
2021/09/12 08:29:02;;;;;;;425.40;318.05;;;;;;;;;;4384967;32;20133;-55
2021/09/12 08:31:30;;;;;;;567.95;351.10;;;;;;;;;;4395101;32;20134;-55
2021/09/12 08:33:59;;;;;;;559.85;348.85;;;;;;;;;;4388726;32;20082;-55
2021/09/12 08:36:27;;;;;;;533.12;353.05;;;;;;;;;;4390868;32;20087;-55
2021/09/12 08:38:55;;;;;;;530.60;339.70;;;;;;;;;;4389607;32;20054;-55
2021/09/12 08:41:24;;;;;;;550.08;353.45;;;;;;;;;;4397146;32;20070;-55
2021/09/12 08:43:52;;;;;;;505.27;342.42;;;;;;;;;;4389402;32;20307;-55
2021/09/12 08:46:20;;;;;;;595.60;361.30;;;;;;;;;;4388155;32;20141;-55
2021/09/12 08:48:50;;;;;;;544.50;372.88;;;;;;;;;;4387776;32;20156;-55
2021/09/12 08:51:18;;;;;;;606.35;392.92;;;;;;;;;;4390951;32;20094;-56
2021/09/12 08:53:47;;;;;;;1015.85;662.78;;;;;;;;;;4391409;32;20069;-56
2021/09/12 08:56:15;;;;;;;915.78;722.28;;;;;;;;;;4391953;32;20393;-56
2021/09/12 08:58:43;;;;;;;685.03;631.58;;;;;;;;;;4388041;32;20163;-56
2021/09/12 09:01:12;;;;;;;417.20;382.98;;;;;;;;;;4389802;32;20151;-54
2021/09/12 09:03:41;;;;;;;152.15;143.27;;;;;;;;;;4388887;32;20050;-54
2021/09/12 09:06:14;;;;;;;10.70;9.80;;;;;;;;;;4395463;32;20429;-54
2021/09/12 09:08:50;;;;;;;4.82;2.25;;;;;;;;;;4391532;32;20093;-54
2021/09/12 09:11:29;;;;;;;3.87;2.05;;;;;;;;;;4396103;32;20541;-54
2021/09/12 09:14:12;;;;;;;4.45;1.40;;;;;;;;;;4391185;32;20121;-54
2021/09/12 09:16:40;;;;;;;3.75;1.50;;;;;;;;;;4388325;32;20086;-54
2021/09/12 09:19:09;;;;;;;3.22;1.40;;;;;;;;;;4392256;32;20085;-54
2021/09/12 09:21:39;;;;;;;3.83;1.70;;;;;;;;;;4390099;32;20052;-54
2021/09/12 09:24:21;;;;;;;6.15;1.92;;;;;;;;;;4390757;32;20069;-54
2021/09/12 09:26:51;;;;;;;5.05;1.50;;;;;;;;;;4396388;32;20093;-54
2021/09/12 09:29:24;;;;;;;4.93;1.80;;;;;;;;;;4389286;32;20062;-54
2021/09/12 09:32:02;;;;;;;3.40;1.73;;;;;;;;;;4394268;32;20050;-54
2021/09/12 09:34:30;;;;;;;4.87;1.80;;;;;;;;;;4389127;32;20052;-54
2021/09/12 09:37:15;;;;;;;4.32;1.50;;;;;;;;;;4387439;32;20540;-53
2021/09/12 09:39:45;;;;;;;4.35;1.83;;;;;;;;;;4389226;32;20088;-54
2021/09/12 09:42:52;;;;;;;2.80;1.50;;;;;;;;;;4393092;32;20105;-54
2021/09/12 09:45:21;;;;;;;4.80;1.40;;;;;;;;;;4352363;32;20070;-53
2021/09/12 09:47:51;;;;;;;2.60;1.20;;;;;;;;;;4350981;32;21476;-54
2021/09/12 09:50:20;;;;;;;3.25;1.27;;;;;;;;;;4371445;32;20061;-53
2021/09/12 09:52:50;;;;;;;2.70;1.15;;;;;;;;;;4386738;32;20097;-54
2021/09/12 09:55:22;;;;;;;3.30;1.30;;;;;;;;;;4388784;32;20519;-54
2021/09/12 09:57:51;;;;;;;3.08;1.10;;;;;;;;;;4392310;32;20104;-54
2021/09/12 10:00:22;;;;;;;3.85;1.30;;;;;;;;;;4383361;32;20105;-54
2021/09/12 10:02:51;;;;;;;4.37;1.40;;;;;;;;;;4388916;32;20077;-54
2021/09/12 10:05:20;;;;;;;3.03;1.40;;;;;;;;;;4388218;32;20073;-54
2021/09/12 10:07:48;;;;;;;3.12;1.27;;;;;;;;;;4388798;32;20137;-54
2021/09/12 10:10:20;;;;;;;3.20;1.40;;;;;;;;;;4386950;32;20063;-54
2021/09/12 10:12:50;;;;;;;3.87;1.20;;;;;;;;;;4389564;32;20665;-54
2021/09/12 10:15:24;;;;;;;3.87;1.50;;;;;;;;;;4395387;32;20035;-53
2021/09/12 10:17:53;;;;;;;2.78;1.20;;;;;;;;;;4393807;32;20134;-53
2021/09/12 10:20:25;;;;;;;3.60;1.30;;;;;;;;;;4397452;32;20065;-53
2021/09/12 10:22:55;;;;;;;3.70;1.10;;;;;;;;;;4391374;32;20077;-53
2021/09/12 10:25:24;;;;;;;2.78;1.05;;;;;;;;;;4391280;32;20051;-54
2021/09/12 10:28:04;;;;;;;2.03;0.90;;;;;;;;;;4393670;32;20054;-54
2021/09/12 10:30:40;;;;;;;3.00;1.27;;;;;;;;;;4397775;32;20088;-54
2021/09/12 10:33:08;;;;;;;4.12;1.12;;;;;;;;;;4397115;32;20086;-54
2021/09/12 10:35:46;;;;;;;4.53;0.90;;;;;;;;;;4390502;32;20039;-54
2021/09/12 10:38:23;;;;;;;4.10;1.00;;;;;;;;;;4390872;32;20114;-54
2021/09/12 10:40:51;;;;;;;5.68;1.35;;;;;;;;;;4386210;32;20103;-54
2021/09/12 10:43:25;;;;;;;4.28;1.10;;;;;;;;;;4392570;32;20419;-54
2021/09/12 10:46:07;;;;;;;3.35;1.15;;;;;;;;;;4387051;32;20051;-54
2021/09/12 10:48:39;;;;;;;5.10;1.50;;;;;;;;;;4399901;32;20356;-54
2021/09/12 10:51:12;;;;;;;7.05;1.67;;;;;;;;;;4389319;32;20070;-54
2021/09/12 10:53:43;;;;;;;4.20;1.60;;;;;;;;;;4389983;32;20055;-55
2021/09/12 10:56:13;;;;;;;5.30;1.77;;;;;;;;;;4395453;32;20116;-54
2021/09/12 10:58:42;;;;;;;5.62;1.90;;;;;;;;;;4388418;32;20474;-54
2021/09/12 11:01:12;;;;;;;5.95;2.00;;;;;;;;;;4387069;32;20076;-54
2021/09/12 11:03:45;;;;;;;4.45;1.60;;;;;;;;;;4382376;32;20069;-55
2021/09/12 11:06:16;;;;;;;3.03;1.60;;;;;;;;;;4387580;32;20526;-55
2021/09/12 11:08:45;;;;;;;11.25;1.83;;;;;;;;;;4389045;32;20106;-54
2021/09/12 11:11:13;;;;;;;3.30;1.60;;;;;;;;;;4388092;32;20166;-54
2021/09/12 11:13:41;;;;;;;3.80;1.48;;;;;;;;;;4383887;32;20134;-54
2021/09/12 11:16:10;;;;;;;2.78;1.40;;;;;;;;;;4389218;32;20038;-54
2021/09/12 11:18:45;;;;;;;5.72;1.95;;;;;;;;;;4400047;32;20463;-54
2021/09/12 11:21:24;;;;;;;4.80;1.67;;;;;;;;;;4389902;32;20047;-55
2021/09/12 11:24:04;;;;;;;4.45;1.60;;;;;;;;;;4380989;32;20047;-54
2021/09/12 11:26:42;;;;;;;6.00;1.73;;;;;;;;;;4389563;32;20050;-54
2021/09/12 11:29:17;;;;;;;4.65;1.50;;;;;;;;;;4387669;32;20046;-54
2021/09/12 11:31:47;;;;;;;4.43;1.40;;;;;;;;;;4386271;32;20055;-54
2021/09/12 11:34:20;;;;;;;5.72;1.20;;;;;;;;;;4382663;32;20042;-54
2021/09/12 11:36:49;;;;;;;4.20;1.15;;;;;;;;;;4381870;32;20067;-54
2021/09/12 11:39:38;;;;;;;2.87;1.20;;;;;;;;;;4380220;32;20046;-56
2021/09/12 11:42:09;;;;;;;2.55;1.02;;;;;;;;;;4392827;32;20046;-56
2021/09/12 11:44:39;;;;;;;2.37;1.05;;;;;;;;;;4393948;32;20357;-54
2021/09/12 11:47:09;;;;;;;2.70;1.10;;;;;;;;;;4380755;32;20039;-54
2021/09/12 11:49:38;;;;;;;2.72;1.00;;;;;;;;;;4392735;32;20638;-54
2021/09/12 11:52:06;;;;;;;2.00;0.80;;;;;;;;;;4385297;32;20051;-54
2021/09/12 11:54:35;;;;;;;3.05;0.80;;;;;;;;;;4395173;32;20434;-54
2021/09/12 11:57:10;;;;;;;2.15;0.90;;;;;;;;;;4387325;32;20065;-55
2021/09/12 11:59:43;;;;;;;4.10;0.93;;;;;;;;;;4394599;32;20078;-54
2021/09/12 12:02:13;;;;;;;1.62;0.60;;;;;;;;;;4389019;32;20093;-54
2021/09/12 12:04:43;;;;;;;3.33;0.75;;;;;;;;;;4387704;32;20074;-54
2021/09/12 12:07:11;;;;;;;2.60;0.80;;;;;;;;;;4388320;32;20046;-55
2021/09/12 12:09:40;;;;;;;2.62;0.80;;;;;;;;;;4387269;32;20412;-54
2021/09/12 12:12:13;;;;;;;4.10;0.70;;;;;;;;;;4383060;32;20136;-55
2021/09/12 12:14:52;;;;;;;5.87;1.20;;;;;;;;;;4382500;32;20080;-54
2021/09/12 12:17:22;;;;;;;24.63;2.30;;;;;;;;;;4385334;32;20398;-54
2021/09/12 12:19:51;;;;;;;5.72;0.95;;;;;;;;;;4384449;32;20434;-54
2021/09/12 12:22:23;;;;;;;2.55;0.88;;;;;;;;;;4385579;32;20236;-54
2021/09/12 12:24:53;;;;;;;4.10;0.90;;;;;;;;;;4386375;32;20451;-54
2021/09/12 12:27:23;;;;;;;12.50;1.65;;;;;;;;;;4385306;32;20117;-54
2021/09/12 12:29:59;;;;;;;3.20;0.75;;;;;;;;;;4385849;32;20081;-54
2021/09/12 12:32:28;;;;;;;5.43;0.90;;;;;;;;;;4382751;32;20073;-54
2021/09/12 12:34:58;;;;;;;1.62;0.90;;;;;;;;;;4381247;32;20055;-54
2021/09/12 12:37:32;;;;;;;2.37;0.90;;;;;;;;;;4381937;32;20487;-54
2021/09/12 12:40:02;;;;;;;3.35;0.82;;;;;;;;;;4381048;32;20097;-54
2021/09/12 12:42:37;;;;;;;3.47;0.88;;;;;;;;;;4384822;32;20043;-54
2021/09/12 12:45:18;;;;;;;2.55;0.77;;;;;;;;;;4386958;32;20058;-54
2021/09/12 12:47:47;;;;;;;4.87;0.90;;;;;;;;;;4381604;32;20089;-54
2021/09/12 12:50:32;;;;;;;3.83;0.90;;;;;;;;;;4380512;32;20118;-54
2021/09/12 12:53:12;;;;;;;7.05;0.85;;;;;;;;;;4381715;32;20441;-54
2021/09/12 12:55:40;;;;;;;11.00;1.20;;;;;;;;;;4381428;32;20051;-54
2021/09/12 12:58:12;;;;;;;4.15;0.88;;;;;;;;;;4379601;32;20479;-54
2021/09/12 13:00:41;;;;;;;6.53;1.20;;;;;;;;;;4379814;32;20141;-54
2021/09/12 13:03:10;;;;;;;5.30;0.93;;;;;;;;;;4380253;32;20114;-54
2021/09/12 13:05:40;;;;;;;3.75;0.82;;;;;;;;;;4384262;32;20057;-54
2021/09/12 13:08:10;;;;;;;3.03;0.80;;;;;;;;;;4382536;32;20082;-54
2021/09/12 13:10:39;;;;;;;3.58;0.90;;;;;;;;;;4380798;32;20043;-54
2021/09/12 13:13:08;;;;;;;2.75;0.68;;;;;;;;;;4381022;32;20055;-54
2021/09/12 13:15:37;;;;;;;2.65;0.80;;;;;;;;;;4380775;32;20062;-54
2021/09/12 13:18:06;;;;;;;2.35;0.90;;;;;;;;;;4378335;32;20035;-54
2021/09/12 13:20:34;;;;;;;2.92;0.80;;;;;;;;;;4380258;32;20067;-54
2021/09/12 13:23:04;;;;;;;3.70;1.00;;;;;;;;;;4381247;32;20048;-54
2021/09/12 13:25:33;;;;;;;3.33;0.90;;;;;;;;;;4383612;32;20850;-54
2021/09/12 13:28:01;;;;;;;3.58;0.70;;;;;;;;;;4381297;32;20073;-54
2021/09/12 13:30:30;;;;;;;3.47;0.90;;;;;;;;;;4381325;32;20160;-54
2021/09/12 13:32:59;;;;;;;3.55;0.80;;;;;;;;;;4381033;32;20074;-54
2021/09/12 13:35:27;;;;;;;6.37;1.23;;;;;;;;;;4382076;32;20081;-54
2021/09/12 13:37:55;;;;;;;3.20;0.98;;;;;;;;;;4378927;32;20091;-54
2021/09/12 13:40:25;;;;;;;2.65;0.75;;;;;;;;;;4381272;32;20459;-54
2021/09/12 13:42:53;;;;;;;3.67;0.77;;;;;;;;;;4381229;32;20078;-54
2021/09/12 13:45:21;;;;;;;3.85;1.10;;;;;;;;;;4381289;32;20050;-54
2021/09/12 13:47:50;;;;;;;2.62;0.80;;;;;;;;;;4383209;32;20098;-54
2021/09/12 13:50:19;;;;;;;3.83;0.88;;;;;;;;;;4382697;32;20090;-54
2021/09/12 13:52:47;;;;;;;3.25;0.90;;;;;;;;;;4381151;32;20097;-54
2021/09/12 13:55:16;;;;;;;4.05;0.80;;;;;;;;;;4380373;32;20071;-54
2021/09/12 13:57:44;;;;;;;4.50;0.90;;;;;;;;;;4377921;32;20842;-54
2021/09/12 14:00:13;;;;;;;2.33;0.85;;;;;;;;;;4381421;32;20553;-54
2021/09/12 14:02:42;;;;;;;4.18;0.75;;;;;;;;;;4378317;32;20071;-54
2021/09/12 14:05:10;;;;;;;4.37;0.80;;;;;;;;;;4382385;32;20112;-54
2021/09/12 14:07:39;;;;;;;2.55;0.93;;;;;;;;;;4379336;32;20123;-54
2021/09/12 14:10:08;;;;;;;3.58;0.90;;;;;;;;;;4379748;32;20443;-54
2021/09/12 14:12:36;;;;;;;3.90;0.80;;;;;;;;;;4380042;32;20109;-56
2021/09/12 14:15:05;;;;;;;2.42;0.73;;;;;;;;;;4381985;32;20077;-56
2021/09/12 14:17:34;;;;;;;4.43;0.90;;;;;;;;;;4380632;32;20069;-56
2021/09/12 14:20:02;;;;;;;2.30;0.80;;;;;;;;;;4379815;32;20063;-56
2021/09/12 14:22:30;;;;;;;2.08;0.80;;;;;;;;;;4380462;32;20098;-54
2021/09/12 14:24:59;;;;;;;2.87;0.82;;;;;;;;;;4376153;32;20039;-54